M I D A S
Marine Information and Data Acquisition System
Tripno 322 of the Zeeleeuw from 2002-03-20 09:00:00 to 2002-03-20 13:32:00
Back to CruiseResearch ActivitiesStationsMapUnderway DataData graphs

EquipmentUnitsComment
TimeDGPSUTC
LatitudeDGPSDM.mWGS84
LongitudeDGPSDM.mWGS84
HeadingGyrodeg 
SOGDGPSknotsSpeed over ground
COGDGPSdegCourse over ground
DepthEcho soundermeters200 kHz
Missing or incorrect values are displayed as -999
Navigation data collected by the RV Zeeleeuw from 2002-03-20 09:00:00 to 2002-03-20 13:32:00
                                                                                    Next 1000 lines
Time Latitude Longitude Heading SOG COG Depth
2002-03-20 09:00:07 51°13.597 2°56.098 0.8   194.1 6.2
2002-03-20 09:00:12 51°13.597 2°56.098 0.8   169.1 5.7
2002-03-20 09:00:17 51°13.597 2°56.098 1.2   172.2 6.2
2002-03-20 09:00:22 51°13.597 2°56.098 1.5 0.1 166 6.2
2002-03-20 09:00:27 51°13.597 2°56.098 1.8 0.1 145.3 6.2
2002-03-20 09:00:32 51°13.597 2°56.098 2.2 0.1 150.9 6.2
2002-03-20 09:00:37 51°13.597 2°56.098 2.5   156.3 6.2
2002-03-20 09:00:43 51°13.597 2°56.098 2.7   258.2 6.2
2002-03-20 09:00:47 51°13.597 2°56.098 2.5   295.3 6.1
2002-03-20 09:00:53 51°13.597 2°56.098 2.3   297.7 6.1
2002-03-20 09:00:57 51°13.597 2°56.098 2.2   292.3 6.1
2002-03-20 09:01:02 51°13.597 2°56.098 2   280.2 6.1
2002-03-20 09:01:07 51°13.597 2°56.098 2   251 6.2
2002-03-20 09:01:12 51°13.597 2°56.098 2   284.3 6.1
2002-03-20 09:01:17 51°13.596 2°56.098 1.8   278.6 6.2
2002-03-20 09:01:22 51°13.596 2°56.097 1.8   249.6 6.1
2002-03-20 09:01:27 51°13.596 2°56.097 2   234.6 6.2
2002-03-20 09:01:33 51°13.596 2°56.097 2.3 0.1 204 6.2
2002-03-20 09:01:37 51°13.596 2°56.097 2.7 0.1 205.2 6.1
2002-03-20 09:01:42 51°13.596 2°56.097 2.8   205.4 6.2
2002-03-20 09:01:47 51°13.596 2°56.097 2.7   183.7 6.2
2002-03-20 09:01:53 51°13.596 2°56.098 2.7   181.6 -999
2002-03-20 09:01:58 51°13.597 2°56.098 2.8   50.4 -999
2002-03-20 09:02:03 51°13.596 2°56.098 2.7   153.5 -999
2002-03-20 09:02:08 51°13.596 2°56.098 2.7   134.2 -999
2002-03-20 09:02:13 51°13.596 2°56.098 2.7   206.7 -999
2002-03-20 09:02:18 51°13.597 2°56.098 2.8   232.4 -999
2002-03-20 09:02:23 51°13.597 2°56.097 2.8   220.5 -999
2002-03-20 09:02:28 51°13.597 2°56.097 2.8   191.8 -999
2002-03-20 09:02:34 51°13.597 2°56.097 2.7   164.6 -999
2002-03-20 09:02:38 51°13.597 2°56.097 2.7   28.9 -999
2002-03-20 09:02:43 51°13.597 2°56.097 2.2   339.8 -999
2002-03-20 09:02:48 51°13.597 2°56.098 1.8 0.1 31.2 -999
2002-03-20 09:02:53 51°13.597 2°56.098 1.3   22.5 -999
2002-03-20 09:02:58 51°13.597 2°56.098 1.3   310.4 -999
2002-03-20 09:03:03 51°13.597 2°56.098 1.3   241.6 -999
2002-03-20 09:03:08 51°13.597 2°56.098 1.5   224 -999
2002-03-20 09:03:13 51°13.597 2°56.098 1.5   175.9 -999
2002-03-20 09:03:18 51°13.597 2°56.098 1.3   203.8 -999
2002-03-20 09:03:23 51°13.597 2°56.098 1.5   183 -999
2002-03-20 09:03:28 51°13.597 2°56.098 1   102.5 -999
2002-03-20 09:03:33 51°13.597 2°56.098 0.5   107.2 -999
2002-03-20 09:03:39 51°13.597 2°56.098     113.9 -999
2002-03-20 09:03:43 51°13.597 2°56.099 359.3 0.1 127.8 -999
2002-03-20 09:03:48 51°13.596 2°56.099 357.8 0.2 134.4 -999
2002-03-20 09:03:53 51°13.596 2°56.099 356.5 0.2 135.9 -999
2002-03-20 09:03:58 51°13.596 2°56.099 355.7 0.1 167.6 -999
2002-03-20 09:04:03 51°13.596 2°56.099 354.8 0.1 211 -999
2002-03-20 09:04:08 51°13.596 2°56.099 354 0.1 229.7 -999
2002-03-20 09:04:12 51°13.596 2°56.099 353 0.1 213.4 6.2
2002-03-20 09:04:17 51°13.596 2°56.099 351.8 0.1 196.3 6.2
2002-03-20 09:04:23 51°13.596 2°56.099 350.5 0.1 194.1 6.2
2002-03-20 09:04:28 51°13.596 2°56.099 349.2 0.1 189.8 6.2
2002-03-20 09:04:32 51°13.596 2°56.099 348 0.1 185.5 6.2
2002-03-20 09:04:37 51°13.596 2°56.099 346.8 0.1 190.8 -999
2002-03-20 09:04:43 51°13.595 2°56.099 345.7 0.1 189.8 5.6
2002-03-20 09:04:47 51°13.595 2°56.099 344.7   183.3 6.2
2002-03-20 09:04:53 51°13.595 2°56.099 343.8   150.4 6.2
2002-03-20 09:04:57 51°13.595 2°56.099 343   133.7 6.2
2002-03-20 09:05:03 51°13.595 2°56.099 342.5   181 6.2
2002-03-20 09:05:07 51°13.595 2°56.099 342.7   250.3 6.2
2002-03-20 09:05:12 51°13.595 2°56.099 343.3 0.1 277.7 5.9
2002-03-20 09:05:17 51°13.596 2°56.098 344 0.2 285.5 6.2
2002-03-20 09:05:23 51°13.596 2°56.096 344.7 0.5 288.7 6.1
2002-03-20 09:05:27 51°13.596 2°56.094 345 0.8 290.5 6.1
2002-03-20 09:05:33 51°13.597 2°56.09 345.2 1.2 291.8 6.2
2002-03-20 09:05:38 51°13.598 2°56.086 345 1.5 292.4 6.6
2002-03-20 09:05:43 51°13.599 2°56.082 344.7 1.8 292.2 -999
2002-03-20 09:05:48 51°13.601 2°56.077 344.5 2.1 291.3 -999
2002-03-20 09:05:53 51°13.602 2°56.072 344.7 2.3 291.5 -999
2002-03-20 09:05:58 51°13.603 2°56.066 345.3 2.7 291.9 -999
2002-03-20 09:06:03 51°13.605 2°56.06 345.8 2.9 292.1 -999
2002-03-20 09:06:08 51°13.607 2°56.053 346 3.2 293.2 -999
2002-03-20 09:06:13 51°13.609 2°56.046 345.7 3.5 293.8 -999
2002-03-20 09:06:18 51°13.611 2°56.038 344.5 3.6 293.6 -999
2002-03-20 09:06:23 51°13.613 2°56.031 343.2 3.6 293 -999
2002-03-20 09:06:28 51°13.615 2°56.024 341.7 3.5 292.3 -999
2002-03-20 09:06:33 51°13.617 2°56.017 340.7 3.5 291.8 8.6
2002-03-20 09:06:37 51°13.618 2°56.012 339.8 3.4 291.5 8.5
2002-03-20 09:06:42 51°13.62 2°56.005 339 3.3 290.9 8.4
2002-03-20 09:06:46 51°13.621 2°56.001 337.7 3 290.2 8.4
2002-03-20 09:06:52 51°13.622 2°55.998 338.2 1.9 296.1 8.4
2002-03-20 09:06:57 51°13.623 2°55.997 340.3 1.1 306 8.4
2002-03-20 09:07:02 51°13.623 2°55.999 343.3 0.4 29.3 8.4
2002-03-20 09:07:07 51°13.623 2°56.001 347.3 0.7 71.8 8.4
2002-03-20 09:07:12 51°13.623 2°56.003 351 0.9 87.4 8.4
2002-03-20 09:07:17 51°13.623 2°56.004 353 0.8 83 8.4
2002-03-20 09:07:23 51°13.624 2°56.004 353.3 0.4 55.7 8.4
2002-03-20 09:07:27 51°13.625 2°56.003 352.8 0.5 348.2 8.4
2002-03-20 09:07:32 51°13.626 2°56 352.5 1.1 309.9 8.2
2002-03-20 09:07:37 51°13.628 2°55.997 352.5 1.6 305.4 8.1
2002-03-20 09:07:43 51°13.63 2°55.991 352.5 2.2 301 -999
2002-03-20 09:07:48 51°13.632 2°55.985 352.5 2.8 298.6 -999
2002-03-20 09:07:53 51°13.634 2°55.979 352.2 3 297.6 -999
2002-03-20 09:07:58 51°13.636 2°55.973 351.5 3.1 296.7 -999
2002-03-20 09:08:03 51°13.638 2°55.967 351 3.1 297.1 -999
2002-03-20 09:08:08 51°13.64 2°55.961 350 3 296.7 -999
2002-03-20 09:08:13 51°13.641 2°55.955 349 3 297 -999
2002-03-20 09:08:18 51°13.643 2°55.949 347.8 3 296.1 -999
2002-03-20 09:08:23 51°13.645 2°55.943 347.2 3 295.7 -999
2002-03-20 09:08:28 51°13.647 2°55.937 346.3 3.1 294.1 -999
2002-03-20 09:08:33 51°13.649 2°55.93 345.7 3.1 293.7 -999
2002-03-20 09:08:38 51°13.65 2°55.924 345.3 3.1 292.8 -999
2002-03-20 09:08:43 51°13.652 2°55.918 345.8 3.1 292.6 -999
2002-03-20 09:08:48 51°13.654 2°55.911 346.5 3.1 292.7 -999
2002-03-20 09:08:53 51°13.656 2°55.905 347.2 3.2 293.9 -999
2002-03-20 09:08:58 51°13.658 2°55.898 347.2 3.4 293.8 -999
2002-03-20 09:09:03 51°13.66 2°55.891 346.7 3.4 294.5 -999
2002-03-20 09:09:08 51°13.662 2°55.883 345.8 3.5 294 -999
2002-03-20 09:09:13 51°13.664 2°55.876 344.8 3.6 293.7 -999
2002-03-20 09:09:18 51°13.666 2°55.868 344.2 3.8 292.1 -999
2002-03-20 09:09:23 51°13.668 2°55.86 343.2 4 291.8 -999
2002-03-20 09:09:28 51°13.67 2°55.851 342.2 4.1 290.9 -999
2002-03-20 09:09:33 51°13.672 2°55.842 340.8 4.2 290.3 -999
2002-03-20 09:09:38 51°13.674 2°55.833 339.2 4.3 288.8 -999
2002-03-20 09:09:43 51°13.675 2°55.824 337.7 4.4 287.7 -999
2002-03-20 09:09:48 51°13.677 2°55.814 336 4.6 286.2 -999
2002-03-20 09:09:53 51°13.679 2°55.804 334.2 4.6 285.1 -999
2002-03-20 09:09:58 51°13.68 2°55.795 332.2 4.5 284.1 -999
2002-03-20 09:10:03 51°13.681 2°55.786 330.2 4.1 282 -999
2002-03-20 09:10:07 51°13.682 2°55.78 328.5 3.9 280.6 10.7
2002-03-20 09:10:13 51°13.683 2°55.77 327 3.7 279.1 11.3
2002-03-20 09:10:17 51°13.683 2°55.764 325.7 3.6 277.5 11.2
2002-03-20 09:10:22 51°13.684 2°55.758 324.2 3.1 278 11.8
2002-03-20 09:10:27 51°13.684 2°55.755 320.7 2.4 277.3 12
2002-03-20 09:10:32 51°13.685 2°55.754 314.7 1.3 288.5 12.1
2002-03-20 09:10:37 51°13.686 2°55.754 306.3 0.7 324.6 12.1
2002-03-20 09:10:43 51°13.688 2°55.757 296.8 1.2 31.1 12.1
2002-03-20 09:10:47 51°13.691 2°55.76 286 1.8 37.1 12.1
2002-03-20 09:10:53 51°13.695 2°55.763 274 2.7 30.7 -999
2002-03-20 09:10:58 51°13.7 2°55.766 261.8 3.4 21.2 12.1
2002-03-20 09:11:03 51°13.706 2°55.767 251 3.9 13.8 -999
2002-03-20 09:11:08 51°13.713 2°55.767 242.3 4.4 4.3 11.7
2002-03-20 09:11:12 51°13.718 2°55.765 232.3 4.7 356.2 10.7
2002-03-20 09:11:17 51°13.724 2°55.762 224.2 4.7 349.6 9.6
2002-03-20 09:11:22 51°13.729 2°55.759 219.8 4.4 342.1 9.9
2002-03-20 09:11:27 51°13.734 2°55.756 216.3 3.9 338.9 9.9
2002-03-20 09:11:32 51°13.737 2°55.754 210.7 3 335.7 9.8
2002-03-20 09:11:37 51°13.739 2°55.752 205.3 2.3 332.3 9.7
2002-03-20 09:11:43 51°13.74 2°55.751 201.7 1.3 329.3 9.5
2002-03-20 09:11:47 51°13.74 2°55.751 199.5 0.6 330.2 9.7
2002-03-20 09:11:52 51°13.739 2°55.752 198.3 0.4 139.9 9.7
2002-03-20 09:11:59 51°13.737 2°55.755 197.7 1.1 140 -999
2002-03-20 09:12:03 51°13.735 2°55.757 196.7 1.6 141.8 -999
2002-03-20 09:12:08 51°13.732 2°55.761 196.5 2.2 139.7 -999
2002-03-20 09:12:13 51°13.729 2°55.765 196.5 2.6 139.3 -999
2002-03-20 09:12:18 51°13.726 2°55.77 196.7 2.9 138.9 -999
2002-03-20 09:12:23 51°13.722 2°55.774 196 3.2 140 -999
2002-03-20 09:12:28 51°13.718 2°55.779 194.7 3.5 139.9 -999
2002-03-20 09:12:33 51°13.715 2°55.785 193.2 3.5 139.6 -999
2002-03-20 09:12:38 51°13.711 2°55.79 191.5 3.5 137.8 -999
2002-03-20 09:12:43 51°13.708 2°55.795 189.8 3.4 136.7 -999
2002-03-20 09:12:48 51°13.705 2°55.8 188.8 3.3 134.2 -999
2002-03-20 09:12:53 51°13.702 2°55.806 188 3.2 133.1 -999
2002-03-20 09:12:58 51°13.699 2°55.811 187.8 3.1 131.1 -999
2002-03-20 09:13:03 51°13.697 2°55.816 188.3 3 130.4 9
2002-03-20 09:13:07 51°13.695 2°55.82 189.2 3 130.4 -999
2002-03-20 09:13:12 51°13.692 2°55.824 190.3 2.9 131 8.6
2002-03-20 09:13:17 51°13.69 2°55.828 191.5 2.7 132.3 8.6
2002-03-20 09:13:23 51°13.687 2°55.833 192.8 2.5 134.6 8.8
2002-03-20 09:13:27 51°13.685 2°55.835 193.3 2.2 136.1 9.1
2002-03-20 09:13:32 51°13.684 2°55.837 192.5 1.6 136.7 9.1
2002-03-20 09:13:37 51°13.683 2°55.839 191.5 1.4 138 9.1
2002-03-20 09:13:43 51°13.682 2°55.841 191.7 1.2 137.5 -999
2002-03-20 09:13:47 51°13.681 2°55.842 192.2 1.1 138.8 9
2002-03-20 09:13:52 51°13.68 2°55.843 192.5 0.9 137.1 8.8
2002-03-20 09:13:57 51°13.679 2°55.844 192.2 0.8 138.3 9.1
2002-03-20 09:14:03 51°13.679 2°55.845 191.8 0.6 136 9
2002-03-20 09:14:07 51°13.679 2°55.845 191.3 0.4 137.4 9.2
2002-03-20 09:14:13 51°13.678 2°55.846 190.8 0.3 129.1 8.9
2002-03-20 09:14:17 51°13.678 2°55.847 190.8 0.2 121.1 8.9
2002-03-20 09:14:23 51°13.678 2°55.848 191.2 0.4 118.4 9.1
2002-03-20 09:14:27 51°13.677 2°55.849 191.8 0.5 122.3 9.3
2002-03-20 09:14:32 51°13.676 2°55.851 192.8 0.9 127.1 9.2
2002-03-20 09:14:37 51°13.676 2°55.852 194.3 0.9 127.4 9.1
2002-03-20 09:14:42 51°13.675 2°55.853 195 0.7 127.9 9.3
2002-03-20 09:14:47 51°13.675 2°55.854 195.2 0.5 124.4 -999
2002-03-20 09:14:52 51°13.675 2°55.854 194.7 0.3 120.7 9.1
2002-03-20 09:14:57 51°13.675 2°55.855 194.5 0.3 111.3 9.3
2002-03-20 09:15:03 51°13.675 2°55.856 193.8 0.2 106.7 -999
2002-03-20 09:15:08 51°13.675 2°55.856 193.5 0.1 87.8 -999
2002-03-20 09:15:13 51°13.675 2°55.856 193.7 0.1 70.1 -999
2002-03-20 09:15:18 51°13.675 2°55.856 194 0.1 51.5 -999
2002-03-20 09:15:23 51°13.675 2°55.856 194.5 0.1 26 -999
2002-03-20 09:15:28 51°13.675 2°55.856 195 0.1 3.7 -999
2002-03-20 09:15:33 51°13.675 2°55.856 195.5 0.1 340.4 9.2
2002-03-20 09:15:37 51°13.676 2°55.856 196 0.1 341.7 9.2
2002-03-20 09:15:43 51°13.676 2°55.856 196.3 0.1 322.1 9.2
2002-03-20 09:15:47 51°13.676 2°55.856 196.7 0.2 325.1 9.1
2002-03-20 09:15:52 51°13.677 2°55.856 197 0.2 323.5 9.2
2002-03-20 09:15:57 51°13.677 2°55.855 197.3 0.2 332.2 9.2
2002-03-20 09:16:02 51°13.677 2°55.855 198.2 0.2 336.6 9.2
2002-03-20 09:16:07 51°13.678 2°55.855 198.8 0.3 344.7 9.2
2002-03-20 09:16:12 51°13.678 2°55.854 199.5 0.5 336.2 9.3
2002-03-20 09:16:17 51°13.679 2°55.854 199.5 0.6 341.3 8.9
2002-03-20 09:16:23 51°13.681 2°55.853 199.2 0.8 333.8 9.2
2002-03-20 09:16:27 51°13.682 2°55.852 199 0.9 332.5 9
2002-03-20 09:16:32 51°13.683 2°55.85 197.8 1.2 328.4 9.2
2002-03-20 09:16:37 51°13.685 2°55.848 196 1.3 326.4 9.2
2002-03-20 09:16:42 51°13.687 2°55.846 195.2 1.5 323.7 9.1
2002-03-20 09:16:47 51°13.689 2°55.844 194.3 1.6 322.6 9
2002-03-20 09:16:52 51°13.691 2°55.841 193.5 1.9 321.8 9
2002-03-20 09:16:57 51°13.693 2°55.837 192.2 2.2 319.3 7.7
2002-03-20 09:17:03 51°13.696 2°55.832 191.2 2.6 315.8 -999
2002-03-20 09:17:08 51°13.699 2°55.826 189.8 2.8 313 7.9
2002-03-20 09:17:13 51°13.702 2°55.821 189.2 3.2 311 -999
2002-03-20 09:17:17 51°13.705 2°55.816 188.5 3.4 310.1 8.5
2002-03-20 09:17:22 51°13.708 2°55.81 188.5 3.6 310.7 8.4
2002-03-20 09:17:27 51°13.712 2°55.803 189 3.8 310.4 9
2002-03-20 09:17:33 51°13.716 2°55.795 189.5 4.1 311 9.2
2002-03-20 09:17:37 51°13.719 2°55.789 189.3 4.2 310.9 9.1
2002-03-20 09:17:43 51°13.724 2°55.78 188.8 4.4 310.9 9.2
2002-03-20 09:17:47 51°13.728 2°55.773 188.2 4.2 310.4 8.7
2002-03-20 09:17:52 51°13.732 2°55.765 187.8 4.3 310.3 8.5
2002-03-20 09:17:57 51°13.737 2°55.757 188 4.7 310.8 9.8
2002-03-20 09:18:02 51°13.742 2°55.749 188.7 4.4 311.8 9.4
2002-03-20 09:18:07 51°13.747 2°55.74 189.3 4.7 312.7 9.3
2002-03-20 09:18:13 51°13.753 2°55.73 189.5 4.9 313.3 9.4
2002-03-20 09:18:17 51°13.757 2°55.723 189.5 4.8 313.7 9.5
2002-03-20 09:18:22 51°13.762 2°55.714 189.3 5.3 314.1 9.7
2002-03-20 09:18:27 51°13.768 2°55.706 190 5.6 315 9.7
2002-03-20 09:18:32 51°13.774 2°55.697 191.2 5.8 316.1 9.6
2002-03-20 09:18:38 51°13.781 2°55.686 193 5.9 316.5 9.6
2002-03-20 09:18:42 51°13.786 2°55.679 194 5.3 317.2 9.5
2002-03-20 09:18:47 51°13.792 2°55.67 195.8 5.7 317.9 9.6
2002-03-20 09:18:52 51°13.799 2°55.662 200.2 6 320 9.6
2002-03-20 09:18:57 51°13.806 2°55.654 204 6 322.5 9.6
2002-03-20 09:19:02 51°13.812 2°55.647 206.7 6 326 9.6
2002-03-20 09:19:07 51°13.819 2°55.641 208.7 5.8 327.7 9.6
2002-03-20 09:19:13 51°13.827 2°55.633 210 5.6 329.1 9.7
2002-03-20 09:19:17 51°13.833 2°55.628 210.8 5.5 329.5 9.7
2002-03-20 09:19:21 51°13.838 2°55.624 211.8 5.6 331.2 9.7
2002-03-20 09:19:27 51°13.847 2°55.617 213 5.7 332.4 9.4
2002-03-20 09:19:32 51°13.854 2°55.611 213.8 5.9 334.3 9.1
2002-03-20 09:19:37 51°13.862 2°55.606 214.5 6.1 335.5 9.2
2002-03-20 09:19:42 51°13.871 2°55.6 214.7 6.4 336.5 9.1
2002-03-20 09:19:47 51°13.879 2°55.594 214.3 6.5 337 9.2
2002-03-20 09:19:52 51°13.888 2°55.589 214.3 6.8 337.2 9.2
2002-03-20 09:19:57 51°13.897 2°55.583 214.7 7 337.5 9.2
2002-03-20 09:20:03 51°13.909 2°55.575 214.8 7.3 337.7 9.3
2002-03-20 09:20:07 51°13.917 2°55.57 214.2 7.5 337.7 9.3
2002-03-20 09:20:12 51°13.927 2°55.563 213.7 7.9 336.9 9.3
2002-03-20 09:20:17 51°13.938 2°55.555 214 8.1 336.5 9.3
2002-03-20 09:20:22 51°13.948 2°55.548 213.8 8.3 336.7 9.2
2002-03-20 09:20:27 51°13.959 2°55.541 213.2 8.4 336.3 9.1
2002-03-20 09:20:32 51°13.97 2°55.533 213.7 8.5 336.2 9.2
2002-03-20 09:20:37 51°13.981 2°55.525 214 8.6 336.6 9.2
2002-03-20 09:20:42 51°13.992 2°55.518 214.2 8.7 336.9 9.2
2002-03-20 09:20:47 51°14.004 2°55.51 213.5 8.8 337.2 9.2
2002-03-20 09:20:52 51°14.015 2°55.503 213.8 8.8 337.3 9.2
2002-03-20 09:20:57 51°14.026 2°55.496 214.2 8.7 337.4 9.1
2002-03-20 09:21:03 51°14.039 2°55.487 213.7 8.6 337 9
2002-03-20 09:21:07 51°14.048 2°55.481 213.5 8.6 336.8 9.3
2002-03-20 09:21:12 51°14.059 2°55.473 213.3 8.5 336.4 9.3
2002-03-20 09:21:17 51°14.069 2°55.466 212.5 8.4 336.1 9.3
2002-03-20 09:21:22 51°14.08 2°55.458 211.3 8.4 334.8 9.1
2002-03-20 09:21:26 51°14.088 2°55.451 211.7 8.3 334.2 9.3
2002-03-20 09:21:32 51°14.1 2°55.441 211.2 8.3 333.6 9.3
2002-03-20 09:21:37 51°14.11 2°55.433 210.3 8.2 333.2 9.2
2002-03-20 09:21:43 51°14.122 2°55.423 210.2 8.2 332.7 9.2
2002-03-20 09:21:47 51°14.13 2°55.417 210 8.1 333 9.2
2002-03-20 09:21:53 51°14.142 2°55.407 209 8.1 332.5 9.3
2002-03-20 09:21:57 51°14.15 2°55.4 207.5 8.1 331.8 9.3
2002-03-20 09:22:03 51°14.162 2°55.388 206.3 8.1 330.3 9.3
2002-03-20 09:22:07 51°14.17 2°55.381 205.8 8.3 329.1 9.3
2002-03-20 09:22:13 51°14.181 2°55.368 203.7 8.4 327.4 9.3
2002-03-20 09:22:17 51°14.189 2°55.359 202 8.5 325.8 9.3
2002-03-20 09:22:23 51°14.201 2°55.346 200.8 8.6 324.3 9.3
2002-03-20 09:22:27 51°14.208 2°55.336 199.8 8.7 323.7 9.3
2002-03-20 09:22:32 51°14.218 2°55.324 199.2 8.8 322.2 9.3
2002-03-20 09:22:37 51°14.228 2°55.312 198 8.8 321.4 9.3
2002-03-20 09:22:42 51°14.237 2°55.299 196.3 8.8 320.2 9.3
2002-03-20 09:22:47 51°14.246 2°55.286 194.8 8.8 318.8 9.3
2002-03-20 09:22:52 51°14.255 2°55.272 193.7 8.8 316.9 9.3
2002-03-20 09:22:57 51°14.264 2°55.258 192.7 8.9 315.7 9.3
2002-03-20 09:23:03 51°14.274 2°55.241 192.3 8.9 314.8 9.2
2002-03-20 09:23:07 51°14.281 2°55.23 192 8.9 314 9.3
2002-03-20 09:23:12 51°14.289 2°55.215 191.2 8.9 313.4 9.5
2002-03-20 09:23:17 51°14.298 2°55.2 189.7 8.9 313 9.3
2002-03-20 09:23:23 51°14.308 2°55.183 188.5 9 311.9 9.3
2002-03-20 09:23:27 51°14.314 2°55.171 187.7 9 311.2 9.2
2002-03-20 09:23:33 51°14.324 2°55.152 187.2 9.1 310.7 9.3
2002-03-20 09:23:37 51°14.331 2°55.14 187.3 9 310.3 9.1
2002-03-20 09:23:42 51°14.339 2°55.125 187.5 9 310.3 9
2002-03-20 09:23:47 51°14.346 2°55.11 186.8 9 309.8 9
2002-03-20 09:23:53 51°14.355 2°55.091 184.5 8.9 308.1 9
2002-03-20 09:23:58 51°14.362 2°55.075 181.3 8.9 306.2 9.3
2002-03-20 09:24:03 51°14.368 2°55.058 177.8 8.8 302.4 9.3
2002-03-20 09:24:07 51°14.372 2°55.044 173.5 8.7 299.5 9.3
2002-03-20 09:24:12 51°14.377 2°55.026 169 8.7 294.4 9.1
2002-03-20 09:24:17 51°14.38 2°55.008 165.3 8.7 290.8 9.1
2002-03-20 09:24:23 51°14.384 2°54.986 161 8.6 285.6 9.2
2002-03-20 09:24:27 51°14.385 2°54.971 157.8 8.6 283.9 8.9
2002-03-20 09:24:32 51°14.387 2°54.953 154.5 8.4 278.4 9
2002-03-20 09:24:37 51°14.388 2°54.934 152.7 8.5 276.4 9
2002-03-20 09:24:42 51°14.388 2°54.915 151.3 8.7 274.3 9
2002-03-20 09:24:47 51°14.389 2°54.895 150 8.8 273.3 9
2002-03-20 09:24:52 51°14.389 2°54.875 149.5 9.1 271.8 9
2002-03-20 09:24:57 51°14.389 2°54.854 149 9.3 271.7 9
2002-03-20 09:25:03 51°14.39 2°54.827 148.8 9.6 271.1 9
2002-03-20 09:25:07 51°14.39 2°54.81 149 9.9 271.1 9.1
2002-03-20 09:25:13 51°14.39 2°54.782 149.2 10.2 270.8 9.1
2002-03-20 09:25:17 51°14.39 2°54.764 149 10.3 270.6 9.1
2002-03-20 09:25:22 51°14.39 2°54.741 147 10.4 269.1 9
2002-03-20 09:25:27 51°14.388 2°54.718 144 10.5 267.1 9
2002-03-20 09:25:32 51°14.386 2°54.694 141 10.6 264.1 9
2002-03-20 09:25:37 51°14.384 2°54.671 139.5 10.7 262.6 9
2002-03-20 09:25:42 51°14.381 2°54.647 139.2 10.8 261 9
2002-03-20 09:25:48 51°14.378 2°54.619 137.3 10.9 260.1 8.9
2002-03-20 09:25:53 51°14.373 2°54.596 134 10.9 256.5 8.8
2002-03-20 09:25:57 51°14.369 2°54.577 129.3 10.9 254 8.7
2002-03-20 09:26:02 51°14.364 2°54.555 126.3 11 249.7 8.6
2002-03-20 09:26:07 51°14.357 2°54.532 124.2 11 247.7 8.5
2002-03-20 09:26:13 51°14.35 2°54.505 123 11.2 245.8 8.5
2002-03-20 09:26:17 51°14.345 2°54.487 123.7 11.2 245.8 8.4
2002-03-20 09:26:23 51°14.337 2°54.46 124.2 11.2 246 8.4
2002-03-20 09:26:28 51°14.331 2°54.436 125 11.3 246.9 8.4
2002-03-20 09:26:32 51°14.326 2°54.417 125.8 11.4 248 8.3
2002-03-20 09:26:37 51°14.321 2°54.394 126.3 11.4 248.4 8.4
2002-03-20 09:26:42 51°14.315 2°54.37 126.7 11.5 248.5 8.4
2002-03-20 09:26:47 51°14.309 2°54.346 126.2 11.6 248.4 8.4
2002-03-20 09:26:52 51°14.303 2°54.322 125.8 11.6 248.3 8.3
2002-03-20 09:26:57 51°14.297 2°54.298 125.8 11.7 248.4 8.3
2002-03-20 09:27:03 51°14.29 2°54.269 126.3 11.8 248.5 8.3
2002-03-20 09:27:07 51°14.285 2°54.25 126.3 11.8 248.4 8.3
2002-03-20 09:27:12 51°14.279 2°54.226 126.3 11.8 248.2 8.3
2002-03-20 09:27:17 51°14.273 2°54.201 126 11.8 248.6 8.3
2002-03-20 09:27:23 51°14.265 2°54.172 125.8 11.9 248.2 8.2
2002-03-20 09:27:27 51°14.261 2°54.152 126.2 11.9 248.2 8.3
2002-03-20 09:27:32 51°14.254 2°54.128 125.3 12 247.6 8.3
2002-03-20 09:27:37 51°14.247 2°54.103 123.8 12 247.2 8.2
2002-03-20 09:27:43 51°14.239 2°54.074 123.3 12.1 245.9 8.2
2002-03-20 09:27:47 51°14.233 2°54.055 122.8 12.1 245.1 8.2
2002-03-20 09:27:53 51°14.225 2°54.025 122.8 12.3 245.4 8.2
2002-03-20 09:27:57 51°14.218 2°54.005 122.5 12.4 244.7 8.2
2002-03-20 09:28:03 51°14.21 2°53.975 122.3 12.4 245.3 8.2
2002-03-20 09:28:07 51°14.204 2°53.955 121.8 12.5 244.3 8.1
2002-03-20 09:28:13 51°14.195 2°53.925 121.2 12.6 244.1 8.1
2002-03-20 09:28:17 51°14.188 2°53.905 120.2 12.7 243.1 8.1
2002-03-20 09:28:22 51°14.18 2°53.88 119.2 12.9 242.2 8
2002-03-20 09:28:27 51°14.17 2°53.855 118.2 13 241 8.2
2002-03-20 09:28:33 51°14.16 2°53.824 117.5 13.2 240.7 8.1
2002-03-20 09:28:37 51°14.153 2°53.803 117.5 13.3 240.4 8.1
2002-03-20 09:28:43 51°14.141 2°53.773 117.7 13.4 240.4 8.1
2002-03-20 09:28:47 51°14.134 2°53.752 117 13.4 240.4 8.1
2002-03-20 09:28:53 51°14.123 2°53.72 117.7 13.5 240.7 8.2
2002-03-20 09:28:57 51°14.115 2°53.699 117.5 13.6 240.5 8.1
2002-03-20 09:29:02 51°14.106 2°53.673 117.8 13.7 240.7 8.1
2002-03-20 09:29:07 51°14.097 2°53.646 118.3 13.7 241.1 8.2
2002-03-20 09:29:12 51°14.088 2°53.62 118.7 13.8 241.4 8.1
2002-03-20 09:29:17 51°14.079 2°53.593 119.2 13.8 241.7 8.2
2002-03-20 09:29:23 51°14.068 2°53.56 118.8 13.9 241.5 8.2
2002-03-20 09:29:27 51°14.061 2°53.539 118.3 13.8 241.6 8.2
2002-03-20 09:29:32 51°14.051 2°53.512 118.7 13.9 241 8.2
2002-03-20 09:29:37 51°14.042 2°53.485 118.2 13.9 241.8 8.2
2002-03-20 09:29:43 51°14.031 2°53.453 118.2 13.9 241 8.3
2002-03-20 09:29:47 51°14.023 2°53.431 119.2 13.9 241.6 8.3
2002-03-20 09:29:53 51°14.012 2°53.399 118.5 13.9 241.7 8.3
2002-03-20 09:29:57 51°14.005 2°53.377 118.5 13.9 241.6 8.3
2002-03-20 09:30:01 51°13.997 2°53.355 118.3 14 240.9 8.3
2002-03-20 09:30:07 51°13.987 2°53.322 118.3 14 241.7 8.4
2002-03-20 09:30:12 51°13.977 2°53.295 118.7 14 241.6 8.1
2002-03-20 09:30:17 51°13.968 2°53.268 119 14 241.4 8.5
2002-03-20 09:30:22 51°13.958 2°53.241 118.7 14 241.2 8.5
2002-03-20 09:30:27 51°13.95 2°53.214 118.5 14.1 241.7 8.2
2002-03-20 09:30:33 51°13.938 2°53.181 118.3 14.1 241.1 8.5
2002-03-20 09:30:37 51°13.931 2°53.159 118.7 14.1 241.5 8.6
2002-03-20 09:30:43 51°13.92 2°53.126 118.5 14.1 241.5 8.5
2002-03-20 09:30:47 51°13.911 2°53.105 118.5 14.1 240.8 8.4
2002-03-20 09:30:51 51°13.905 2°53.082 118.3 14.1 241.8 8.7
2002-03-20 09:30:57 51°13.893 2°53.05 118.2 14.1 240.8 8.7
2002-03-20 09:31:02 51°13.883 2°53.023 118.5 14.1 241.1 8.6
2002-03-20 09:31:07 51°13.874 2°52.995 118.7 14.2 241.1 8.8
2002-03-20 09:31:12 51°13.865 2°52.968 118.7 14.1 241.7 8.8
2002-03-20 09:31:17 51°13.856 2°52.941 118.3 14 241.7 8.8
2002-03-20 09:31:23 51°13.844 2°52.908 118.3 14.1 241.4 8.8
2002-03-20 09:31:27 51°13.837 2°52.886 118.8 14.1 241.6 9
2002-03-20 09:31:32 51°13.828 2°52.859 118.2 14.1 241.6 9
2002-03-20 09:31:37 51°13.819 2°52.831 119 14.1 242 9
2002-03-20 09:31:43 51°13.807 2°52.798 118.5 14.1 241.4 9
2002-03-20 09:31:47 51°13.8 2°52.776 118.7 14.1 242 9
2002-03-20 09:31:53 51°13.789 2°52.743 118.3 14.1 241.5 9
2002-03-20 09:31:57 51°13.781 2°52.721 119 14.1 241.3 9.1
2002-03-20 09:32:03 51°13.77 2°52.689 118.7 14.1 241.7 9
2002-03-20 09:32:08 51°13.761 2°52.661 118.3 14.1 241.2 9.1
2002-03-20 09:32:13 51°13.752 2°52.634 118.8 14.1 241.8 9.1
2002-03-20 09:32:17 51°13.744 2°52.612 117.8 14.1 241.2 9.1
2002-03-20 09:32:21 51°13.736 2°52.59 118.5 14.2 241.5 9.1
2002-03-20 09:32:27 51°13.725 2°52.557 118.2 14.2 241.7 9.1
2002-03-20 09:32:32 51°13.716 2°52.53 118.2 14.1 241.5 9
2002-03-20 09:32:37 51°13.706 2°52.502 119 14.2 241.2 8.9
2002-03-20 09:32:43 51°13.695 2°52.47 118.5 14.1 241.7 9
2002-03-20 09:32:48 51°13.686 2°52.443 118.2 14 241.4 9
2002-03-20 09:32:53 51°13.677 2°52.415 118.8 14 241.4 9.1
2002-03-20 09:32:57 51°13.669 2°52.393 118.7 14.1 242 9.1
2002-03-20 09:33:03 51°13.658 2°52.36 118.5 14.2 241.6 9.3
2002-03-20 09:33:07 51°13.65 2°52.338 118.3 14.1 241.7 9.3
2002-03-20 09:33:12 51°13.641 2°52.311 118.2 14.1 241.8 9.4
2002-03-20 09:33:18 51°13.63 2°52.278 118.3 14.2 241.1 9.4
2002-03-20 09:33:22 51°13.623 2°52.256 118.7 14.2 241.6 9.4
2002-03-20 09:33:27 51°13.613 2°52.229 118.3 14.1 241.1 9.4
2002-03-20 09:33:32 51°13.604 2°52.201 118.7 14.2 241.6 9.4
2002-03-20 09:33:37 51°13.594 2°52.174 118.7 14.2 241.5 9.3
2002-03-20 09:33:43 51°13.583 2°52.141 118 14.1 241.5 9.3
2002-03-20 09:33:47 51°13.576 2°52.119 118.3 14.1 241.4 9.4
2002-03-20 09:33:52 51°13.566 2°52.092 118.5 14.2 241 9.3
2002-03-20 09:33:57 51°13.557 2°52.064 118.5 14.2 241.7 9.3
2002-03-20 09:34:03 51°13.546 2°52.031 119 14.1 241.3 9.3
2002-03-20 09:34:07 51°13.538 2°52.009 118.7 14.1 242 9.4
2002-03-20 09:34:12 51°13.53 2°51.981 118.8 14.1 242.1 9.4
2002-03-20 09:34:17 51°13.52 2°51.954 119.5 14.2 241.5 9.4
2002-03-20 09:34:23 51°13.509 2°51.921 118.8 14.1 241.9 9.5
2002-03-20 09:34:28 51°13.5 2°51.893 118.7 14.1 241.5 9.4
2002-03-20 09:34:32 51°13.492 2°51.871 119.3 14.2 241.8 9.5
2002-03-20 09:34:37 51°13.483 2°51.843 118.8 14.2 241.8 9.5
2002-03-20 09:34:43 51°13.472 2°51.81 118.2 14.1 242 9.4
2002-03-20 09:34:47 51°13.464 2°51.789 118.8 14.1 241.4 9.4
2002-03-20 09:34:52 51°13.455 2°51.761 118.5 14.1 241.8 9.4
2002-03-20 09:34:57 51°13.446 2°51.734 118.7 14.1 241.5 9.5
2002-03-20 09:35:02 51°13.436 2°51.707 118.3 14.1 241.3 9.4
2002-03-20 09:35:08 51°13.426 2°51.673 118.3 14.2 241.5 9.4
2002-03-20 09:35:12 51°13.418 2°51.652 118.3 14.1 241 9.3
2002-03-20 09:35:17 51°13.408 2°51.625 117.2 14.1 241.1 9.3
2002-03-20 09:35:22 51°13.399 2°51.597 118.7 14.1 241.6 9.4
2002-03-20 09:35:27 51°13.389 2°51.57 118.7 14.1 241.5 9.4
2002-03-20 09:35:32 51°13.38 2°51.542 118.3 14.1 241.7 9.4
2002-03-20 09:35:37 51°13.371 2°51.515 118.5 14.1 241.5 9.4
2002-03-20 09:35:43 51°13.36 2°51.482 118.7 14.1 241.9 9.5
2002-03-20 09:35:47 51°13.352 2°51.461 118.3 14.1 241.6 9.4
2002-03-20 09:35:52 51°13.343 2°51.433 118.3 14.1 241.7 9.4
2002-03-20 09:35:57 51°13.334 2°51.405 119 14.2 241.8 9.4
2002-03-20 09:36:03 51°13.323 2°51.372 118.2 14.2 242 9.4
2002-03-20 09:36:07 51°13.315 2°51.35 118.5 14.2 241.7 9.4
2002-03-20 09:36:13 51°13.304 2°51.317 118.7 14.2 241.5 9.5
2002-03-20 09:36:17 51°13.296 2°51.295 118.5 14.2 241.3 9.5
2002-03-20 09:36:23 51°13.285 2°51.263 118.5 14.1 241.3 9.5
2002-03-20 09:36:27 51°13.278 2°51.241 117.8 14 241.1 9.5
2002-03-20 09:36:32 51°13.268 2°51.213 119 14.2 241.5 9.5
2002-03-20 09:36:37 51°13.259 2°51.186 118.7 14.3 241.9 9.5
2002-03-20 09:36:42 51°13.25 2°51.159 118.5 14.2 241.4 9.5
2002-03-20 09:36:47 51°13.241 2°51.131 118.8 14.1 242 9.6
2002-03-20 09:36:52 51°13.231 2°51.104 118.5 14.1 241.6 9.6
2002-03-20 09:36:57 51°13.222 2°51.076 118.7 14.1 241.5 9.6
2002-03-20 09:37:03 51°13.211 2°51.043 118.5 14.1 241.7 9.5
2002-03-20 09:37:07 51°13.203 2°51.021 118.7 14.2 241.7 9.5
2002-03-20 09:37:12 51°13.194 2°50.994 118.8 14.2 241.6 9.6
2002-03-20 09:37:17 51°13.185 2°50.966 118.7 14.1 241.7 9.6
2002-03-20 09:37:22 51°13.175 2°50.939 118.8 14.1 241.5 9.6
2002-03-20 09:37:27 51°13.166 2°50.912 117.8 14 241.7 9.6
2002-03-20 09:37:32 51°13.157 2°50.885 117.8 14.1 241 9.7
2002-03-20 09:37:37 51°13.147 2°50.857 118.7 14.1 241.2 9.7
2002-03-20 09:37:43 51°13.135 2°50.825 117.8 14.2 241 9.7
2002-03-20 09:37:47 51°13.128 2°50.802 118 14.2 241.7 9.7
2002-03-20 09:37:52 51°13.119 2°50.775 118.5 14.1 241.5 9.7
2002-03-20 09:37:58 51°13.108 2°50.742 118.2 14.1 241.1 9.7
2002-03-20 09:38:03 51°13.098 2°50.715 118 14.1 241.4 9.7
2002-03-20 09:38:07 51°13.091 2°50.693 118.3 14.1 241.2 9.8
2002-03-20 09:38:13 51°13.08 2°50.66 119.5 14.1 241.6 9.8
2002-03-20 09:38:17 51°13.073 2°50.638 119.7 14.1 242.4 9.8
2002-03-20 09:38:22 51°13.064 2°50.61 120.2 14.1 243.3 9.8
2002-03-20 09:38:27 51°13.055 2°50.582 120.7 14.1 243.2 9.8
2002-03-20 09:38:32 51°13.047 2°50.554 120.8 14.1 244.3 9.9
2002-03-20 09:38:37 51°13.038 2°50.526 121 14 243.7 9.8
2002-03-20 09:38:42 51°13.03 2°50.498 121.7 14 244.1 9.8
2002-03-20 09:38:47 51°13.021 2°50.471 121.2 14.1 243.8 9.8
2002-03-20 09:38:52 51°13.012 2°50.442 121.3 14.1 243.9 9.9
2002-03-20 09:38:57 51°13.004 2°50.414 121 14.1 244.1 9.9
2002-03-20 09:39:03 51°12.993 2°50.381 121.2 14.1 243.6 9.9
2002-03-20 09:39:07 51°12.987 2°50.358 121.5 14.1 244.2 9.9
2002-03-20 09:39:12 51°12.978 2°50.331 121.2 14.1 243.9 9.9
2002-03-20 09:39:17 51°12.969 2°50.303 121.3 14.1 243.9 10
2002-03-20 09:39:23 51°12.959 2°50.269 121 14.1 244 10
2002-03-20 09:39:27 51°12.952 2°50.247 120.7 14.1 244 10
2002-03-20 09:39:32 51°12.943 2°50.219 120.5 14.1 243.9 10
2002-03-20 09:39:37 51°12.934 2°50.191 120.5 14.1 243.4 10
2002-03-20 09:39:42 51°12.926 2°50.163 120.8 14.2 243.4 10.1
2002-03-20 09:39:47 51°12.917 2°50.135 120 14.1 243.5 10.1
2002-03-20 09:39:53 51°12.906 2°50.101 120.7 14.2 243.3 10.1
2002-03-20 09:39:58 51°12.897 2°50.073 120.8 14.1 244.1 10.1
2002-03-20 09:40:03 51°12.889 2°50.045 120.5 14.2 243.4 10.1
2002-03-20 09:40:07 51°12.882 2°50.022 121 14.2 244.2 10.1
2002-03-20 09:40:13 51°12.872 2°49.989 120.3 14.1 243.5 10.2
2002-03-20 09:40:17 51°12.865 2°49.967 120.3 14.1 243.7 10.2
2002-03-20 09:40:23 51°12.854 2°49.933 120 14.1 243.5 10.1
2002-03-20 09:40:27 51°12.847 2°49.911 120.3 14.1 243.1 10.2
2002-03-20 09:40:32 51°12.838 2°49.884 119 14.1 242.1 10.1
2002-03-20 09:40:37 51°12.829 2°49.856 117.8 14.2 241.8 10.2
2002-03-20 09:40:43 51°12.817 2°49.823 118.5 14.2 241.5 10.2
2002-03-20 09:40:47 51°12.81 2°49.801 118.5 14.2 241.2 10.2
2002-03-20 09:40:52 51°12.801 2°49.773 118.7 14.2 242 10.3
2002-03-20 09:40:57 51°12.791 2°49.746 119.2 14.1 242.2 10.2
2002-03-20 09:41:03 51°12.781 2°49.712 119.8 14.2 242.9 10.3
2002-03-20 09:41:07 51°12.774 2°49.69 120.5 14.2 243.3 10.3
2002-03-20 09:41:11 51°12.767 2°49.667 120.2 14.1 243.6 10.3
2002-03-20 09:41:17 51°12.756 2°49.634 120.5 14.1 243.5 10.3
2002-03-20 09:41:22 51°12.748 2°49.605 120.7 14.2 244.1 10.3
2002-03-20 09:41:27 51°12.739 2°49.578 120.8 14.2 243.6 10.4
2002-03-20 09:41:32 51°12.73 2°49.549 120.5 14.1 244.1 10.3
2002-03-20 09:41:37 51°12.722 2°49.521 120.7 14.2 244 10.3
2002-03-20 09:41:42 51°12.713 2°49.493 120.8 14.3 244 10.3
2002-03-20 09:41:47 51°12.704 2°49.464 120.7 14.2 244 10.4
2002-03-20 09:41:52 51°12.696 2°49.436 120.7 14.2 243.8 10.4
2002-03-20 09:41:57 51°12.687 2°49.408 120.7 14.2 243.9 10.4
2002-03-20 09:42:02 51°12.678 2°49.38 120.5 14.2 243.8 10.4
2002-03-20 09:42:07 51°12.669 2°49.352 120.7 14.2 243.6 10.3
2002-03-20 09:42:13 51°12.659 2°49.318 120.7 14.2 244 10.4
2002-03-20 09:42:17 51°12.652 2°49.295 121 14.2 243.8 10.4
2002-03-20 09:42:22 51°12.645 2°49.269 122 13.7 244.7 10.5
2002-03-20 09:42:27 51°12.638 2°49.244 122.3 12.9 245.2 10.4
2002-03-20 09:42:32 51°12.631 2°49.221 123.2 12.1 245.2 10.5
2002-03-20 09:42:36 51°12.626 2°49.203 124.7 11.5 246.3 10.7
2002-03-20 09:42:42 51°12.619 2°49.178 125.8 10.5 247.3 10.8
2002-03-20 09:42:47 51°12.615 2°49.158 128 10 248.9 10.8
2002-03-20 09:42:52 51°12.611 2°49.14 129.8 9.2 250.2 10.9
2002-03-20 09:42:56 51°12.609 2°49.125 131.8 8.8 251.9 11
2002-03-20 09:43:03 51°12.604 2°49.102 133.3 8.2 253.5 10.9
2002-03-20 09:43:07 51°12.602 2°49.089 135.7 7.8 255.1 10.9
2002-03-20 09:43:12 51°12.6 2°49.074 138 7.4 256.7 11
2002-03-20 09:43:17 51°12.599 2°49.059 140 7.1 258.1 11
2002-03-20 09:43:23 51°12.597 2°49.042 141.2 6.7 259.6 11
2002-03-20 09:43:27 51°12.596 2°49.031 143 6.4 260.9 11
2002-03-20 09:43:32 51°12.595 2°49.018 144.7 6.1 262.2 11.1
2002-03-20 09:43:37 51°12.594 2°49.005 146 5.9 263.2 10.9
2002-03-20 09:43:43 51°12.593 2°48.991 147.2 5.6 264.2 11.1
2002-03-20 09:43:47 51°12.593 2°48.982 147.7 5.3 265.2 11.1
2002-03-20 09:43:53 51°12.592 2°48.97 148.5 4.9 265.1 11
2002-03-20 09:43:57 51°12.592 2°48.964 148.2 4.4 265.1 10.9
2002-03-20 09:44:03 51°12.591 2°48.956 145.8 3.5 264.7 11.1
2002-03-20 09:44:08 51°12.59 2°48.952 143.8 2.9 262.7 11.1
2002-03-20 09:44:13 51°12.59 2°48.949 144 1.7 257.6 11.1
2002-03-20 09:44:17 51°12.59 2°48.948 145.3 1.1 256.1 11.1
2002-03-20 09:44:23 51°12.589 2°48.949 147.5 0.3 211 11.1
2002-03-20 09:44:27 51°12.589 2°48.951 148.7 0.3 152.7 11.1
2002-03-20 09:44:33 51°12.588 2°48.953 150.2 0.8 116.7 -999
2002-03-20 09:44:38 51°12.588 2°48.954 151.5 0.8 117.9 -999
2002-03-20 09:44:43 51°12.587 2°48.955 152.7 0.8 130.1 -999
2002-03-20 09:44:48 51°12.587 2°48.956 154.2 0.6 137.4 -999
2002-03-20 09:44:53 51°12.586 2°48.956 154.5 0.5 154.2 -999
2002-03-20 09:44:58 51°12.585 2°48.955 154.3 0.4 204.7 -999
2002-03-20 09:45:03 51°12.585 2°48.953 154 0.6 237.2 10.4
2002-03-20 09:45:07 51°12.585 2°48.951 152.7 0.8 246.4 10.9
2002-03-20 09:45:12 51°12.585 2°48.949 151.8 1.1 255.7 10.4
2002-03-20 09:45:17 51°12.584 2°48.947 151.2 1.1 255.5 9.9
2002-03-20 09:45:23 51°12.584 2°48.944 150.5 1.1 256.5 10.2
2002-03-20 09:45:27 51°12.583 2°48.942 150.3 1.1 255.4 11
2002-03-20 09:45:33 51°12.583 2°48.94 150 1 255.6 8.4
2002-03-20 09:45:38 51°12.583 2°48.938 149.8 1 253.9 7.7
2002-03-20 09:45:43 51°12.582 2°48.936 150 1 255 -999
2002-03-20 09:45:48 51°12.582 2°48.934 150 0.9 252.2 -999
2002-03-20 09:45:53 51°12.581 2°48.932 149.8 0.9 249.1 -999
2002-03-20 09:45:58 51°12.581 2°48.931 150.2 0.8 250.9 6.9
2002-03-20 09:46:03 51°12.581 2°48.929 150 0.8 248.4 10.4
2002-03-20 09:46:07 51°12.581 2°48.928 150.5 0.8 248.3 10
2002-03-20 09:46:12 51°12.58 2°48.926 151.2 0.7 250.2 9.7
2002-03-20 09:46:17 51°12.58 2°48.925 151.5 0.7 250.1 9.5
2002-03-20 09:46:22 51°12.58 2°48.924 152 0.7 251.1 9.3
2002-03-20 09:46:28 51°12.579 2°48.922 152.5 0.7 248.2 10.1
2002-03-20 09:46:33 51°12.579 2°48.921 152.8 0.6 250.7 9.7
2002-03-20 09:46:37 51°12.578 2°48.92 153.7 0.6 244.5 9.9
2002-03-20 09:46:42 51°12.579 2°48.919 154.2 0.5 251 11
2002-03-20 09:46:47 51°12.578 2°48.918 154.7 0.6 239.2 10.9
2002-03-20 09:46:52 51°12.578 2°48.917 155.7 0.5 245.4 11
2002-03-20 09:46:57 51°12.577 2°48.916 156.5 0.6 237.2 11
2002-03-20 09:47:03 51°12.577 2°48.915 157.3 0.5 237.8 11
2002-03-20 09:47:07 51°12.577 2°48.914 158.5 0.5 238 10.9
2002-03-20 09:47:12 51°12.576 2°48.913 159.7 0.4 238.1 10.9
2002-03-20 09:47:17 51°12.576 2°48.912 161 0.4 238.1 11
2002-03-20 09:47:22 51°12.576 2°48.912 162.3 0.4 237.7 10.9
2002-03-20 09:47:27 51°12.576 2°48.911 163.5 0.4 236.2 10.7
2002-03-20 09:47:32 51°12.575 2°48.91 164.8 0.4 237.1 10.9
2002-03-20 09:47:37 51°12.575 2°48.909 166.7 0.4 246.9 11.1
2002-03-20 09:47:42 51°12.575 2°48.909 167.5 0.4 243.8 11.1
2002-03-20 09:47:47 51°12.575 2°48.907 169.3 0.4 256.8 11.1
2002-03-20 09:47:52 51°12.575 2°48.906 170.3 0.6 259.6 11.1
2002-03-20 09:47:57 51°12.575 2°48.905 171.3 0.6 267.8 11.1
2002-03-20 09:48:03 51°12.575 2°48.903 172.2 0.8 270.5 11.1
2002-03-20 09:48:07 51°12.575 2°48.901 172.7 0.8 275.6 11
2002-03-20 09:48:12 51°12.575 2°48.899 173.3 1 278.3 10.9
2002-03-20 09:48:17 51°12.576 2°48.896 174.3 1 281.7 11.1
2002-03-20 09:48:22 51°12.576 2°48.894 174.7 1.2 284.4 11.1
2002-03-20 09:48:27 51°12.576 2°48.891 175 1.2 284 11.1
2002-03-20 09:48:32 51°12.577 2°48.889 175.7 1.2 287.2 11.1
2002-03-20 09:48:37 51°12.577 2°48.886 175.8 1.2 284.6 11.1
2002-03-20 09:48:42 51°12.578 2°48.883 176.3 1.2 287.5 11.1
2002-03-20 09:48:47 51°12.578 2°48.88 176.3 1.3 284.4 11.1
2002-03-20 09:48:52 51°12.579 2°48.878 176.7 1.3 287.1 11.1
2002-03-20 09:48:57 51°12.579 2°48.875 176.5 1.3 286 11.1
2002-03-20 09:49:02 51°12.58 2°48.872 176.5 1.4 286.8 11.1
2002-03-20 09:49:07 51°12.58 2°48.869 176 1.4 284.4 11.1
2002-03-20 09:49:12 51°12.581 2°48.866 175.7 1.4 286.6 11.2
2002-03-20 09:49:18 51°12.581 2°48.863 175.2 1.4 283.5 11.2
2002-03-20 09:49:22 51°12.582 2°48.86 174.8 1.4 284.6 11.2
2002-03-20 09:49:27 51°12.582 2°48.857 174.3 1.4 283.8 11.2
2002-03-20 09:49:32 51°12.583 2°48.854 173.8 1.4 284.2 11.2
2002-03-20 09:49:37 51°12.583 2°48.851 173 1.4 283.6 11.2
2002-03-20 09:49:43 51°12.584 2°48.848 172.7 1.4 283.5 11.1
2002-03-20 09:49:47 51°12.584 2°48.846 172.3 1.3 284.2 11.2
2002-03-20 09:49:52 51°12.585 2°48.843 171.8 1.4 284 11.2
2002-03-20 09:49:57 51°12.585 2°48.84 171.3 1.4 283.6 11.2
2002-03-20 09:50:03 51°12.586 2°48.836 170.5 1.4 284.5 11.2
2002-03-20 09:50:08 51°12.586 2°48.833 169.8 1.4 282.8 11.2
2002-03-20 09:50:12 51°12.587 2°48.831 169.8 1.4 282.4 11.2
2002-03-20 09:50:17 51°12.587 2°48.828 170.3 1.5 281.7 11.2
2002-03-20 09:50:23 51°12.588 2°48.824 171.2 1.5 280.9 11.2
2002-03-20 09:50:27 51°12.588 2°48.821 172 1.5 283.9 11.2
2002-03-20 09:50:32 51°12.588 2°48.818 173 1.5 283.3 11.2
2002-03-20 09:50:37 51°12.589 2°48.815 174.7 1.5 283.3 11.2
2002-03-20 09:50:42 51°12.59 2°48.812 176 1.5 285.2 11.2
2002-03-20 09:50:47 51°12.59 2°48.809 177.7 1.5 285.6 11.2
2002-03-20 09:50:52 51°12.591 2°48.806 179.3 1.5 287.8 11.2
2002-03-20 09:50:57 51°12.592 2°48.803 180.8 1.5 289.5 11.2
2002-03-20 09:51:02 51°12.592 2°48.8 183.2 1.5 290.8 11.2
2002-03-20 09:51:07 51°12.593 2°48.797 184.8 1.5 293.6 11.2
2002-03-20 09:51:13 51°12.594 2°48.793 186.7 1.5 291.1 11.2
2002-03-20 09:51:17 51°12.595 2°48.791 189 1.4 296.1 11.2
2002-03-20 09:51:21 51°12.595 2°48.788 190.7 1.5 293.7 11.3
2002-03-20 09:51:28 51°12.597 2°48.785 192.7 1.5 298.4 11.3
2002-03-20 09:51:32 51°12.598 2°48.782 193.7 1.5 298.4 11.3
2002-03-20 09:51:37 51°12.599 2°48.779 195 1.5 301.5 11.3
2002-03-20 09:51:42 51°12.6 2°48.777 195.7 1.5 303.3 11.3
2002-03-20 09:51:47 51°12.601 2°48.774 196.5 1.5 303.5 11.3
2002-03-20 09:51:52 51°12.603 2°48.771 197.7 1.5 304.7 11.3
2002-03-20 09:51:57 51°12.604 2°48.768 198.7 1.6 305.5 11.3
2002-03-20 09:52:02 51°12.605 2°48.765 199.5 1.6 306.8 11.3
2002-03-20 09:52:07 51°12.607 2°48.763 200.3 1.6 308.8 11.3
2002-03-20 09:52:12 51°12.608 2°48.76 201.3 1.6 309.2 11.3
2002-03-20 09:52:17 51°12.609 2°48.757 202.2 1.6 310.2 11.3
2002-03-20 09:52:23 51°12.611 2°48.754 203.2 1.6 310.9 11.2
2002-03-20 09:52:27 51°12.612 2°48.752 203.7 1.6 310.9 11.3
2002-03-20 09:52:32 51°12.614 2°48.75 205.2 1.6 311.3 11.2
2002-03-20 09:52:37 51°12.615 2°48.747 206.7 1.6 314.3 11.3
2002-03-20 09:52:42 51°12.617 2°48.745 207.7 1.5 314.6 11.3
2002-03-20 09:52:47 51°12.619 2°48.743 209.7 1.5 316.5 11.3
2002-03-20 09:52:52 51°12.62 2°48.74 211.2 1.5 317.1 11.3
2002-03-20 09:52:57 51°12.622 2°48.738 212.8 1.5 318.1 11.3
2002-03-20 09:53:02 51°12.623 2°48.736 214.5 1.5 320.2 11.3
2002-03-20 09:53:07 51°12.625 2°48.734 216.7 1.4 321.6 11.2
2002-03-20 09:53:12 51°12.626 2°48.732 218.7 1.5 323.8 11.2
2002-03-20 09:53:17 51°12.628 2°48.731 220.3 1.4 326.4 11.2
2002-03-20 09:53:22 51°12.63 2°48.729 221.5 1.5 326.3 11.2
2002-03-20 09:53:27 51°12.632 2°48.727 223.2 1.4 328.9 11.3
2002-03-20 09:53:33 51°12.634 2°48.725 224.3 1.4 329.8 11.3
2002-03-20 09:53:37 51°12.635 2°48.724 225.7 1.4 331.5 11.4
2002-03-20 09:53:43 51°12.637 2°48.722 227.5 1.4 333.6 11.4
2002-03-20 09:53:47 51°12.639 2°48.721 229.8 1.4 336.9 11.3
2002-03-20 09:53:52 51°12.641 2°48.72 231.3 1.4 339 11.3
2002-03-20 09:53:57 51°12.642 2°48.719 233 1.4 340.4 11.2
2002-03-20 09:54:02 51°12.644 2°48.718 234.3 1.4 341.9 11.3
2002-03-20 09:54:07 51°12.646 2°48.717 235.7 1.4 343.2 11.3
2002-03-20 09:54:12 51°12.648 2°48.716 237.2 1.4 345.3 11.3
2002-03-20 09:54:17 51°12.65 2°48.715 238.5 1.4 344.2 11.3
2002-03-20 09:54:22 51°12.651 2°48.715 240.3 1.4 348.7 11.3
2002-03-20 09:54:27 51°12.653 2°48.714 241.3 1.4 349.1 11.3
2002-03-20 09:54:32 51°12.655 2°48.714 243.2 1.3 352 11.4
2002-03-20 09:54:37 51°12.657 2°48.714 244.8 1.3 354.4 11.4
2002-03-20 09:54:43 51°12.659 2°48.713 246.5 1.3 358.5 11.3
2002-03-20 09:54:47 51°12.66 2°48.713 248.5 1.3 359.8 11.3
2002-03-20 09:54:52 51°12.663 2°48.714 250.2 1.3 2.3 11.3
2002-03-20 09:54:58 51°12.665 2°48.714 251.3 1.3 5.9 11.2
2002-03-20 09:55:03 51°12.667 2°48.715 252.5 1.3 6 11.1
2002-03-20 09:55:07 51°12.668 2°48.715 255.8 1.3 7.7 11.1
2002-03-20 09:55:12 51°12.67 2°48.716 257.3 1.3 8.9 11.2
2002-03-20 09:55:17 51°12.672 2°48.717 258.8 1.3 10.1 11.3
2002-03-20 09:55:23 51°12.674 2°48.717 260.3 1.3 11.2 11.4
2002-03-20 09:55:27 51°12.675 2°48.719 261.8 1.3 15.1 11.5
2002-03-20 09:55:33 51°12.677 2°48.719 262.8 1.3 13.8 11.5
2002-03-20 09:55:37 51°12.678 2°48.72 265 1.3 20.3 11.6
2002-03-20 09:55:43 51°12.681 2°48.721 265.8 1.3 18.2 11.5
2002-03-20 09:55:48 51°12.682 2°48.722 268.3 1.3 26 11.5
2002-03-20 09:55:52 51°12.684 2°48.723 269 1.3 24 11.5
2002-03-20 09:55:57 51°12.685 2°48.725 270.8 1.3 28 11.4
2002-03-20 09:56:03 51°12.687 2°48.726 272.7 1.3 27 11.4
2002-03-20 09:56:08 51°12.688 2°48.728 273.8 1.3 31.7 11.4
2002-03-20 09:56:12 51°12.69 2°48.729 275.5 1.3 31.2 11.4
2002-03-20 09:56:17 51°12.691 2°48.731 276.7 1.3 34.5 11.4
2002-03-20 09:56:23 51°12.693 2°48.733 278.5 1.3 35.2 11.3
2002-03-20 09:56:27 51°12.694 2°48.734 280 1.3 37.2 11.3
2002-03-20 09:56:33 51°12.695 2°48.737 282.3 1.3 41.6 11.4
2002-03-20 09:56:37 51°12.696 2°48.738 284.2 1.3 42 11.4
2002-03-20 09:56:42 51°12.698 2°48.74 286.3 1.3 46 11.4
2002-03-20 09:56:47 51°12.699 2°48.743 288.3 1.3 49.4 11.4
2002-03-20 09:56:52 51°12.7 2°48.745 290.5 1.2 52.8 11.4
2002-03-20 09:56:57 51°12.701 2°48.747 293.8 1.3 57.3 11.4
2002-03-20 09:57:03 51°12.702 2°48.75 296 1.3 58.5 11.3
2002-03-20 09:57:07 51°12.702 2°48.753 297.2 1.3 63.8 11.3
2002-03-20 09:57:12 51°12.703 2°48.755 298.7 1.3 66.6 11.3
2002-03-20 09:57:17 51°12.704 2°48.758 299 1.4 66.7 11.3
2002-03-20 09:57:22 51°12.704 2°48.761 299.7 1.4 68.4 11.3
2002-03-20 09:57:27 51°12.705 2°48.764 299.5 1.4 66.7 11.3
2002-03-20 09:57:32 51°12.706 2°48.767 299.5 1.4 69.9 11.4
2002-03-20 09:57:37 51°12.707 2°48.77 299.5 1.4 69 11.3
2002-03-20 09:57:43 51°12.708 2°48.773 299.3 1.5 68.3 11.3
2002-03-20 09:57:47 51°12.708 2°48.776 299 1.5 68.1 11.3
2002-03-20 09:57:52 51°12.709 2°48.779 298.7 1.5 68 11.3
2002-03-20 09:57:57 51°12.71 2°48.782 298.2 1.5 66.2 11.3
2002-03-20 09:58:03 51°12.711 2°48.785 297.8 1.5 67.7 11.3
2002-03-20 09:58:07 51°12.711 2°48.788 297.8 1.4 65.9 11.2
2002-03-20 09:58:13 51°12.712 2°48.791 297.2 1.4 67.4 11.3
2002-03-20 09:58:17 51°12.713 2°48.793 297 1.4 64.5 11.3
2002-03-20 09:58:23 51°12.714 2°48.797 296.3 1.4 66.7 11.3
2002-03-20 09:58:27 51°12.715 2°48.799 295.7 1.4 63.1 11.3
2002-03-20 09:58:32 51°12.715 2°48.802 295.7 1.4 65.9 11.3
2002-03-20 09:58:37 51°12.716 2°48.804 295.2 1.4 61.5 11.3
2002-03-20 09:58:43 51°12.717 2°48.808 295.2 1.4 63.5 11.3
2002-03-20 09:58:47 51°12.718 2°48.81 294.3 1.4 62.2 11.3
2002-03-20 09:58:52 51°12.719 2°48.812 294 1.3 63.7 11.3
2002-03-20 09:58:57 51°12.72 2°48.815 293.7 1.3 60.5 11.3
2002-03-20 09:59:03 51°12.721 2°48.818 293.7 1.3 62.7 11.3
2002-03-20 09:59:07 51°12.721 2°48.82 293.2 1.3 61.5 11.3
2002-03-20 09:59:12 51°12.722 2°48.822 293.2 1.2 60.6 11.3
2002-03-20 09:59:17 51°12.723 2°48.825 293.2 1.2 63.8 11.3
2002-03-20 09:59:22 51°12.724 2°48.827 293.7 1.2 62.7 11.3
2002-03-20 09:59:27 51°12.724 2°48.829 293.8 1.2 63.7 11.3
2002-03-20 09:59:33 51°12.725 2°48.832 294.3 1.2 64.3 11.3
2002-03-20 09:59:37 51°12.725 2°48.834 294.2 1.2 64.5 11.3
2002-03-20 09:59:43 51°12.726 2°48.837 294.3 1.1 62.9 11.3
2002-03-20 09:59:47 51°12.727 2°48.838 294.7 1.1 64.3 11.3
2002-03-20 09:59:52 51°12.728 2°48.84 295.2 1.1 63.5 11.3
2002-03-20 09:59:57 51°12.728 2°48.842 295.3 1.1 63.8 11.3
2002-03-20 10:00:03 51°12.729 2°48.845 295.8 1 63 11.3
2002-03-20 10:00:07 51°12.729 2°48.846 296 1 64.4 11.3
2002-03-20 10:00:11 51°12.73 2°48.848 296.5 1 65.7 11.3
2002-03-20 10:00:17 51°12.731 2°48.851 296.7 1 67.7 11.3
2002-03-20 10:00:23 51°12.731 2°48.853 297.5 1 67.1 11.2
2002-03-20 10:00:27 51°12.732 2°48.855 297.8 1 71.5 11.3
2002-03-20 10:00:32 51°12.732 2°48.857 298.7 1 71.3 11.2
2002-03-20 10:00:37 51°12.732 2°48.858 298.8 1 72.1 11.3
2002-03-20 10:00:43 51°12.733 2°48.861 299.8 0.9 74 11.3
2002-03-20 10:00:47 51°12.733 2°48.862 299.8 0.9 72.8 11.3
2002-03-20 10:00:53 51°12.734 2°48.865 300.5 0.9 74.7 11.3
2002-03-20 10:00:57 51°12.734 2°48.866 300.8 0.9 72.1 11.3
2002-03-20 10:01:03 51°12.734 2°48.869 301.5 0.9 75 11.2
2002-03-20 10:01:07 51°12.735 2°48.87 301.7 0.9 72.1 11.3
2002-03-20 10:01:13 51°12.735 2°48.872 301.7 0.9 75.7 11.2
2002-03-20 10:01:17 51°12.735 2°48.874 302.2 0.9 77.7 11.2
2002-03-20 10:01:23 51°12.736 2°48.876 302.5 0.9 75 11.2
2002-03-20 10:01:27 51°12.736 2°48.878 303 0.9 81 11.2
2002-03-20 10:01:32 51°12.736 2°48.88 303 0.9 77.8 11.2
2002-03-20 10:01:37 51°12.736 2°48.882 303.7 0.9 84.7 11.2
2002-03-20 10:01:43 51°12.736 2°48.884 303.5 0.9 80.7 11.2
2002-03-20 10:01:47 51°12.736 2°48.886 303.8 0.9 87.8 11.2
2002-03-20 10:01:53 51°12.737 2°48.888 303.8 0.9 81.9 11.2
2002-03-20 10:01:57 51°12.737 2°48.89 303.8 0.9 85.9 11.3
2002-03-20 10:02:03 51°12.737 2°48.892 302.8 0.8 79.1 11.2
2002-03-20 10:02:07 51°12.737 2°48.893 302.8 0.9 85.5 11.2
2002-03-20 10:02:13 51°12.737 2°48.895 302 0.8 76.6 11.2
2002-03-20 10:02:18 51°12.737 2°48.897 301.3 0.8 84.6 11.2
2002-03-20 10:02:22 51°12.738 2°48.898 300.3 0.8 72.9 11.3
2002-03-20 10:02:28 51°12.738 2°48.901 300 0.8 82.1 11.3
2002-03-20 10:02:33 51°12.738 2°48.902 299 0.8 71.1 11.3
2002-03-20 10:02:37 51°12.738 2°48.904 298.3 0.8 78.6 11.2
2002-03-20 10:02:42 51°12.739 2°48.905 297.3 0.8 68.3 11.2
2002-03-20 10:02:47 51°12.739 2°48.907 296.7 0.8 75.7 11.2
2002-03-20 10:02:52 51°12.74 2°48.909 296.7 0.8 70.5 11.2
2002-03-20 10:02:57 51°12.74 2°48.91 295.7 0.8 67.4 11.2
2002-03-20 10:03:02 51°12.741 2°48.912 295.5 0.8 67 11.2
2002-03-20 10:03:07 51°12.741 2°48.913 295 0.7 67.5 11.2
2002-03-20 10:03:12 51°12.741 2°48.914 295.7 0.7 72.5 11.2
2002-03-20 10:03:17 51°12.742 2°48.916 295.7 0.7 70.4 11.2
2002-03-20 10:03:23 51°12.742 2°48.918 296 0.7 70 11.2
2002-03-20 10:03:27 51°12.742 2°48.919 296.2 0.7 73.8 11.2
2002-03-20 10:03:33 51°12.743 2°48.921 296.2 0.7 73.8 11.2
2002-03-20 10:03:37 51°12.743 2°48.922 296.2 0.7 68.1 11.2
2002-03-20 10:03:42 51°12.743 2°48.924 296.2 0.7 72.5 11.2
2002-03-20 10:03:47 51°12.744 2°48.925 295.7 0.7 71.5 11.2
2002-03-20 10:03:52 51°12.744 2°48.927 296 0.7 69.8 11.3
2002-03-20 10:03:57 51°12.744 2°48.928 296 0.7 69.6 11.3
2002-03-20 10:04:02 51°12.745 2°48.93 296 0.7 70 11.3
2002-03-20 10:04:07 51°12.745 2°48.931 296 0.7 70.5 11.3
2002-03-20 10:04:12 51°12.746 2°48.933 296.3 0.7 68.7 11.3
2002-03-20 10:04:17 51°12.746 2°48.934 296 0.7 70.9 11.2
2002-03-20 10:04:22 51°12.746 2°48.936 296 0.7 67.7 11.3
2002-03-20 10:04:27 51°12.746 2°48.937 296.2 0.7 71.4 11.3
2002-03-20 10:04:32 51°12.747 2°48.938 296.2 0.7 62.4 11.2
2002-03-20 10:04:37 51°12.747 2°48.94 296 0.7 71.1 11.2
2002-03-20 10:04:43 51°12.748 2°48.942 296.5 0.7 66.8 11.1
2002-03-20 10:04:48 51°12.748 2°48.943 295.7 0.7 74.2 11.1
2002-03-20 10:04:52 51°12.748 2°48.945 296.3 0.7 71.7 11.2
2002-03-20 10:04:57 51°12.748 2°48.946 296.2 0.7 71.6 11.1
2002-03-20 10:05:03 51°12.749 2°48.948 296.7 0.7 72.5 11.2
2002-03-20 10:05:07 51°12.749 2°48.949 296.7 0.7 71.7 11.2
2002-03-20 10:05:13 51°12.749 2°48.951 297.3 0.7 74.4 11.2
2002-03-20 10:05:17 51°12.75 2°48.952 297.3 0.7 73.8 11.2
2002-03-20 10:05:23 51°12.75 2°48.954 297.8 0.7 73 11.2
2002-03-20 10:05:27 51°12.75 2°48.955 297.7 0.7 71.9 11.2
2002-03-20 10:05:33 51°12.751 2°48.957 298.3 0.7 72.6 11.2
2002-03-20 10:05:37 51°12.751 2°48.958 298.3 0.7 73.7 11.2
2002-03-20 10:05:42 51°12.751 2°48.96 299 0.8 75.6 11.2
2002-03-20 10:05:47 51°12.752 2°48.962 299.3 0.8 75.1 11.1
2002-03-20 10:05:53 51°12.752 2°48.964 300.3 0.8 74.5 11.2
2002-03-20 10:05:57 51°12.752 2°48.965 301 0.8 71.6 11.2
2002-03-20 10:06:01 51°12.752 2°48.967 301.8 0.8 75.1 11.2
2002-03-20 10:06:07 51°12.753 2°48.969 302.3 0.8 72.5 11.2
2002-03-20 10:06:13 51°12.753 2°48.971 302.5 0.9 75.1 11.2
2002-03-20 10:06:17 51°12.753 2°48.973 303 0.9 74.1 11.2
2002-03-20 10:06:21 51°12.754 2°48.975 303.3 1 76.5 11.2
2002-03-20 10:06:27 51°12.754 2°48.977 304.2 1 75.8 11.2
2002-03-20 10:06:33 51°12.755 2°48.98 304.7 1 79 11.2
2002-03-20 10:06:38 51°12.755 2°48.982 305.3 1 78.1 11.2
2002-03-20 10:06:43 51°12.755 2°48.984 305.5 1 76.6 11.1
2002-03-20 10:06:47 51°12.755 2°48.986 305.7 1 79.4 11.2
2002-03-20 10:06:52 51°12.756 2°48.988 306 1.1 78.3 11.2
2002-03-20 10:06:57 51°12.756 2°48.991 306.2 1.1 79.8 11.2
2002-03-20 10:07:03 51°12.756 2°48.994 306.2 1.1 79.9 11.2
2002-03-20 10:07:08 51°12.757 2°48.996 306.3 1.1 80.2 11.2
2002-03-20 10:07:12 51°12.757 2°48.998 306.2 1.1 77.9 11.2
2002-03-20 10:07:17 51°12.757 2°49.001 306 1.2 78.5 11.2
2002-03-20 10:07:23 51°12.758 2°49.004 305.5 1.2 75.9 11.2
2002-03-20 10:07:28 51°12.758 2°49.006 305.3 1.2 77.5 11.2
2002-03-20 10:07:32 51°12.759 2°49.008 304.7 1.2 73.4 11.2
2002-03-20 10:07:37 51°12.759 2°49.011 304.5 1.2 76.5 11.2
2002-03-20 10:07:43 51°12.759 2°49.014 304.3 1.2 71.1 11.2
2002-03-20 10:07:47 51°12.76 2°49.016 304.3 1.2 76.2 11.2
2002-03-20 10:07:53 51°12.76 2°49.019 304.3 1.2 74.5 11.2
2002-03-20 10:07:57 51°12.76 2°49.021 304.7 1.2 77.3 11.1
2002-03-20 10:08:03 51°12.761 2°49.025 304.2 1.2 74.8 11.2
2002-03-20 10:08:07 51°12.761 2°49.027 304.5 1.3 75.9 11.2
2002-03-20 10:08:12 51°12.762 2°49.029 304.2 1.3 73.5 11.2
2002-03-20 10:08:17 51°12.762 2°49.032 303.8 1.3 76.6 11.2
2002-03-20 10:08:23 51°12.763 2°49.036 303.5 1.3 74.7 11.2
2002-03-20 10:08:27 51°12.763 2°49.038 304.3 1.3 77.4 11.1
2002-03-20 10:08:32 51°12.764 2°49.041 305 1.3 76.1 11.1
2002-03-20 10:08:37 51°12.764 2°49.044 306.2 1.3 80.2 11.1
2002-03-20 10:08:43 51°12.764 2°49.047 308 1.3 77.9 11.1
2002-03-20 10:08:47 51°12.765 2°49.049 309 1.3 84.5 11.1
2002-03-20 10:08:53 51°12.765 2°49.053 311.8 1.3 85.2 11.2
2002-03-20 10:08:57 51°12.765 2°49.055 313.3 1.3 88.2 11.2
2002-03-20 10:09:03 51°12.765 2°49.059 316.2 1.3 91.3 11.2
2002-03-20 10:09:07 51°12.764 2°49.061 318.8 1.3 92.5 11.2
2002-03-20 10:09:12 51°12.764 2°49.064 321.8 1.4 97.8 11.1
2002-03-20 10:09:17 51°12.763 2°49.067 324.5 1.4 104.4 11.2
2002-03-20 10:09:22 51°12.763 2°49.07 327.2 1.4 103.1 11.2
2002-03-20 10:09:28 51°12.762 2°49.074 329.5 1.4 109 11.2
2002-03-20 10:09:32 51°12.761 2°49.076 331.3 1.4 110.5 11.2
2002-03-20 10:09:37 51°12.76 2°49.079 332 1.4 112.7 11.1
2002-03-20 10:09:41 51°12.76 2°49.081 332 1.4 112.4 11.2
2002-03-20 10:09:47 51°12.759 2°49.085 332.2 1.4 112.1 11.2
2002-03-20 10:09:53 51°12.758 2°49.088 331.5 1.4 112.2 11.2
2002-03-20 10:09:57 51°12.758 2°49.09 330.7 1.4 110.9 11.1
2002-03-20 10:10:03 51°12.757 2°49.094 329.8 1.4 111.4 11.1
2002-03-20 10:10:08 51°12.756 2°49.097 329 1.3 107.9 11.1
2002-03-20 10:10:12 51°12.756 2°49.099 327.5 1.4 109.6 11.1
2002-03-20 10:10:17 51°12.756 2°49.102 326.3 1.3 105.7 11.1
2002-03-20 10:10:22 51°12.755 2°49.104 325.2 1.3 107.9 11.1
2002-03-20 10:10:27 51°12.755 2°49.107 324.2 1.3 102.5 11.1
2002-03-20 10:10:33 51°12.755 2°49.11 322.5 1.3 103.4 11.1
2002-03-20 10:10:37 51°12.754 2°49.113 321.2 1.3 101.3 11.1
2002-03-20 10:10:42 51°12.754 2°49.115 319.5 1.2 98.1 11.1
2002-03-20 10:10:47 51°12.754 2°49.118 317.7 1.2 99.9 11.1
2002-03-20 10:10:53 51°12.754 2°49.121 315.8 1.2 96.3 11.1
2002-03-20 10:10:58 51°12.754 2°49.123 313.3 1.2 93.8 11.1
2002-03-20 10:11:03 51°12.754 2°49.126 311.5 1.1 90.5 11.1
2002-03-20 10:11:07 51°12.755 2°49.128 309.8 1.1 86.8 11.1
2002-03-20 10:11:12 51°12.754 2°49.13 308.8 1.2 88 11.1
2002-03-20 10:11:17 51°12.755 2°49.133 308.2 1.2 84.8 11.1
2002-03-20 10:11:23 51°12.755 2°49.136 308 1.2 83.5 11.1
2002-03-20 10:11:27 51°12.755 2°49.138 308.2 1.2 83 11.1
2002-03-20 10:11:32 51°12.755 2°49.141 308.2 1.2 83.4 11.1
2002-03-20 10:11:37 51°12.755 2°49.143 308.7 1.2 83 11.1
2002-03-20 10:11:43 51°12.755 2°49.147 308.8 1.2 86.4 11.1
2002-03-20 10:11:47 51°12.755 2°49.149 309 1.2 85.4 11.1
2002-03-20 10:11:53 51°12.756 2°49.152 309.3 1.2 86.2 11.1
2002-03-20 10:11:57 51°12.756 2°49.154 309.2 1.2 86.5 11.1
2002-03-20 10:12:03 51°12.756 2°49.158 309 1.3 87.7 11.1
2002-03-20 10:12:07 51°12.756 2°49.16 309 1.2 83.9 11.1
2002-03-20 10:12:13 51°12.756 2°49.163 308.8 1.3 88.2 11.1
2002-03-20 10:12:18 51°12.756 2°49.166 308.8 1.2 83.7 11.1
2002-03-20 10:12:23 51°12.756 2°49.169 308.3 1.3 86.5 11
2002-03-20 10:12:27 51°12.757 2°49.171 307.8 1.3 83.5 11
2002-03-20 10:12:32 51°12.757 2°49.174 307.5 1.3 83.9 11
2002-03-20 10:12:37 51°12.757 2°49.176 306.7 1.3 80.2 11
2002-03-20 10:12:43 51°12.758 2°49.18 306 1.3 82 11
2002-03-20 10:12:47 51°12.758 2°49.182 305.8 1.3 81.2 11
2002-03-20 10:12:53 51°12.758 2°49.186 305.5 1.3 80.5 11.1
2002-03-20 10:12:57 51°12.758 2°49.188 305 1.3 79.4 11.1
2002-03-20 10:13:02 51°12.759 2°49.191 304.7 1.3 78.8 11
2002-03-20 10:13:07 51°12.759 2°49.194 304.5 1.3 78.4 11
2002-03-20 10:13:12 51°12.76 2°49.196 304.5 1.3 76.9 11
2002-03-20 10:13:17 51°12.76 2°49.199 304.2 1.3 76.8 11
2002-03-20 10:13:23 51°12.761 2°49.203 304 1.3 76.5 11
2002-03-20 10:13:27 51°12.761 2°49.205 303.7 1.3 75.4 11
2002-03-20 10:13:33 51°12.761 2°49.208 303 1.3 74.5 11
2002-03-20 10:13:37 51°12.761 2°49.211 303.3 1.3 78.2 11
2002-03-20 10:13:42 51°12.762 2°49.214 302.8 1.3 73.6 11
2002-03-20 10:13:48 51°12.763 2°49.217 302.8 1.3 78 11
2002-03-20 10:13:52 51°12.763 2°49.219 302.5 1.3 73.4 11
2002-03-20 10:13:57 51°12.763 2°49.222 302.5 1.3 76.7 11
2002-03-20 10:14:03 51°12.764 2°49.225 302.2 1.3 75.4 11
2002-03-20 10:14:07 51°12.765 2°49.227 302.3 1.3 75.9 11
2002-03-20 10:14:13 51°12.765 2°49.23 301.8 1.3 75.8 11
2002-03-20 10:14:17 51°12.766 2°49.233 301.3 1.3 71.8 11
2002-03-20 10:14:23 51°12.766 2°49.236 301 1.3 75.5 11
2002-03-20 10:14:27 51°12.767 2°49.238 300.3 1.3 70.6 11
2002-03-20 10:14:33 51°12.767 2°49.241 300.2 1.3 74.4 11
2002-03-20 10:14:37 51°12.768 2°49.243 300.2 1.3 71.3 11
2002-03-20 10:14:42 51°12.768 2°49.246 299.5 1.3 72.3 11
2002-03-20 10:14:47 51°12.769 2°49.248 299.3 1.3 69.5 11
2002-03-20 10:14:53 51°12.77 2°49.251 298.7 1.3 71.1 11
2002-03-20 10:14:57 51°12.77 2°49.254 298.7 1.3 69.8 11
2002-03-20 10:15:03 51°12.771 2°49.257 298.3 1.3 67.9 11
2002-03-20 10:15:07 51°12.771 2°49.259 298.5 1.3 67.3 11
2002-03-20 10:15:13 51°12.772 2°49.262 297.7 1.3 69.8 11
2002-03-20 10:15:17 51°12.773 2°49.264 297.8 1.3 68 11
2002-03-20 10:15:23 51°12.774 2°49.267 297.5 1.3 65.9 11
2002-03-20 10:15:27 51°12.774 2°49.269 297.2 1.3 68 11
2002-03-20 10:15:32 51°12.775 2°49.272 296.8 1.3 65.4 11
2002-03-20 10:15:37 51°12.776 2°49.274 296.7 1.3 65.1 11
2002-03-20 10:15:43 51°12.777 2°49.277 296.5 1.3 66.7 11
2002-03-20 10:15:48 51°12.778 2°49.28 296.2 1.3 64.1 11
2002-03-20 10:15:52 51°12.778 2°49.282 296.3 1.3 64.9 11
2002-03-20 10:15:57 51°12.779 2°49.284 296.2 1.3 62.9 11
2002-03-20 10:16:03 51°12.78 2°49.287 296 1.3 66.1 11
2002-03-20 10:16:08 51°12.781 2°49.29 295.3 1.3 62 11
2002-03-20 10:16:12 51°12.781 2°49.292 295.3 1.3 67.3 11
2002-03-20 10:16:16 51°12.782 2°49.294 294.8 1.3 60.1 11
2002-03-20 10:16:23 51°12.783 2°49.297 294.2 1.3 63.5 11
2002-03-20 10:16:27 51°12.784 2°49.299 293.3 1.3 60.3 11
2002-03-20 10:16:32 51°12.785 2°49.302 292.7 1.3 62.6 11
2002-03-20 10:16:37 51°12.785 2°49.304 292.5 1.3 61.4 11
2002-03-20 10:16:41 51°12.786 2°49.306 292.2 1.3 60.2 11
2002-03-20 10:16:47 51°12.787 2°49.309 291.8 1.3 61.2 11
2002-03-20 10:16:52 51°12.788 2°49.312 292 1.3 62.3 10.9
2002-03-20 10:16:57 51°12.789 2°49.314 291.8 1.3 60.3 11
2002-03-20 10:17:03 51°12.79 2°49.317 293 1.3 62.4 11
2002-03-20 10:17:07 51°12.791 2°49.319 321 1.3 59.8 11
2002-03-20 10:17:12 51°12.791 2°49.322 3 1.3 61.5 10.9
2002-03-20 10:17:17 51°12.792 2°49.324 43.3 1.3 60.1 10.9
2002-03-20 10:17:22 51°12.793 2°49.327 57.3 1.3 60.9 10.9
2002-03-20 10:17:27 51°12.794 2°49.329 57.5 1.3 59.9 10.9
2002-03-20 10:17:32 51°12.795 2°49.332 58.2 1.3 62 10.9
2002-03-20 10:17:37 51°12.796 2°49.334 57.5 1.3 59.4 10.9
2002-03-20 10:17:43 51°12.797 2°49.337 58.2 1.3 64.2 10.9
2002-03-20 10:17:48 51°12.797 2°49.34 58.3 1.3 63.8 10.9
2002-03-20 10:17:53 51°12.798 2°49.343 58.7 1.3 63.9 10.9
2002-03-20 10:17:57 51°12.799 2°49.345 59.3 1.3 63.7 10.9
2002-03-20 10:18:03 51°12.8 2°49.348 59.3 1.3 66.4 10.9
2002-03-20 10:18:07 51°12.8 2°49.35 60.2 1.3 64.4 10.9
2002-03-20 10:18:12 51°12.801 2°49.353 60.3 1.3 63.2 10.9
2002-03-20 10:18:17 51°12.802 2°49.356 60.7 1.3 67.9 10.9
2002-03-20 10:18:23 51°12.803 2°49.359 61 1.3 64.8 10.9
2002-03-20 10:18:27 51°12.804 2°49.361 62 1.3 67.2 11
2002-03-20 10:18:33 51°12.804 2°49.364 62.7 1.3 66.8 11
2002-03-20 10:18:37 51°12.805 2°49.366 63.3 1.3 67.4 11
2002-03-20 10:18:43 51°12.806 2°49.369 63.5 1.3 66.5 10.9
2002-03-20 10:18:47 51°12.806 2°49.372 64.5 1.4 71.8 11
2002-03-20 10:18:53 51°12.807 2°49.375 65 1.3 68.1 10.9
2002-03-20 10:18:57 51°12.807 2°49.377 66.7 1.3 75 10.9
2002-03-20 10:19:03 51°12.808 2°49.381 67.5 1.3 73.5 10.9
2002-03-20 10:19:07 51°12.809 2°49.383 68.3 1.4 75.7 11
2002-03-20 10:19:13 51°12.809 2°49.386 69.5 1.4 79.1 11
2002-03-20 10:19:17 51°12.809 2°49.389 70.2 1.3 78.1 11
2002-03-20 10:19:22 51°12.809 2°49.392 72.2 1.4 84 11
2002-03-20 10:19:27 51°12.81 2°49.394 73 1.3 81.3 11
2002-03-20 10:19:32 51°12.809 2°49.398 74.7 1.4 87.1 11
2002-03-20 10:19:37 51°12.81 2°49.4 75.5 1.4 83.6 10.9
2002-03-20 10:19:43 51°12.809 2°49.404 77 1.4 90.5 10.9
2002-03-20 10:19:47 51°12.809 2°49.407 78.3 1.4 89.6 10.9
2002-03-20 10:19:52 51°12.809 2°49.41 79.3 1.4 94.6 10.9
2002-03-20 10:19:57 51°12.809 2°49.413 80.7 1.4 93.5 10.9
2002-03-20 10:20:03 51°12.809 2°49.416 82.2 1.4 97.4 10.9
2002-03-20 10:20:07 51°12.808 2°49.419 83.8 1.4 97.8 10.8
2002-03-20 10:20:13 51°12.808 2°49.422 85.2 1.4 99.6 10.9
2002-03-20 10:20:17 51°12.807 2°49.425 86.8 1.4 102.3 10.8
2002-03-20 10:20:22 51°12.807 2°49.428 88.2 1.4 102.2 10.9
2002-03-20 10:20:27 51°12.806 2°49.431 89.7 1.4 108.1 10.9
2002-03-20 10:20:33 51°12.806 2°49.434 91.2 1.4 107.2 10.9
2002-03-20 10:20:37 51°12.805 2°49.436 92.5 1.4 111.5 10.9
2002-03-20 10:20:42 51°12.804 2°49.439 94.2 1.4 110.8 10.8
2002-03-20 10:20:47 51°12.803 2°49.442 95.5 1.4 114.6 10.8
2002-03-20 10:20:53 51°12.802 2°49.445 97 1.4 115.9 10.9
2002-03-20 10:20:57 51°12.802 2°49.448 98.2 1.4 117 10.8
2002-03-20 10:21:03 51°12.801 2°49.451 99.5 1.4 119.8 10.8
2002-03-20 10:21:07 51°12.799 2°49.453 100.5 1.4 122.1 10.8
2002-03-20 10:21:12 51°12.799 2°49.456 101.7 1.4 121.6 10.8
2002-03-20 10:21:16 51°12.798 2°49.458 102.3 1.4 123 10.8
2002-03-20 10:21:23 51°12.796 2°49.461 103.3 1.4 123.9 10.8
2002-03-20 10:21:27 51°12.795 2°49.463 103.8 1.4 125.5 10.8
2002-03-20 10:21:33 51°12.794 2°49.466 104.7 1.4 126.3 10.8
2002-03-20 10:21:37 51°12.793 2°49.468 105.5 1.4 128.3 10.8
2002-03-20 10:21:43 51°12.791 2°49.471 106.3 1.4 128 10.8
2002-03-20 10:21:48 51°12.79 2°49.473 107 1.4 131 10.8
2002-03-20 10:21:53 51°12.789 2°49.475 108.2 1.4 131.7 10.8
2002-03-20 10:21:57 51°12.788 2°49.477 108.5 1.4 132 10.8
2002-03-20 10:22:03 51°12.786 2°49.48 109.5 1.4 133.9 10.8
2002-03-20 10:22:07 51°12.785 2°49.482 110.5 1.4 135.9 10.8
2002-03-20 10:22:13 51°12.783 2°49.484 111.5 1.3 135.8 10.8
2002-03-20 10:22:17 51°12.782 2°49.485 112.2 1.3 136.9 10.8
2002-03-20 10:22:23 51°12.78 2°49.488 112.8 1.4 138.3 10.7
2002-03-20 10:22:27 51°12.779 2°49.489 114 1.3 139.1 10.7
2002-03-20 10:22:33 51°12.778 2°49.491 114.7 1.3 139 10.7
2002-03-20 10:22:37 51°12.777 2°49.493 115.5 1.3 140.9 10.7
2002-03-20 10:22:43 51°12.775 2°49.495 116.8 1.3 141.7 10.7
2002-03-20 10:22:47 51°12.774 2°49.496 117.7 1.3 143.3 10.8
2002-03-20 10:22:52 51°12.772 2°49.498 118.8 1.3 145.4 10.8
2002-03-20 10:22:57 51°12.771 2°49.5 119.5 1.3 145.1 10.7
2002-03-20 10:23:02 51°12.769 2°49.501 120.2 1.3 147.2 10.7
2002-03-20 10:23:07 51°12.768 2°49.503 121.8 1.3 148.3 10.8
2002-03-20 10:23:12 51°12.766 2°49.504 122.2 1.3 148.9 10.8
2002-03-20 10:23:17 51°12.764 2°49.505 123.2 1.3 151.2 10.7